Flight Track Log - Related Links

Times and Time Zones

All times are in EDT time to prevent confusion due to time zone crossing. See the SWA706 flight status page for this flight to view local times or setup timezone preferences in your user account.

Time Position Orientation Groundspeed Altitude Reporting Facility
EDT Latitude Longitude Course Direction KTS MPH feet Rate Location/Type
Sat 06:29:14 AM 42.7631 -73.8061 340° North 147 169 1,600  Level Boston Center
Sat 06:30:14 AM 42.8047 -73.8267 340° North 151 174 4,100 2,780 Climbing Boston Center
Sat 06:31:17 AM 42.8583 -73.8703 329° Northwest 203 234 7,300 3,220 Climbing Boston Center
Sat 06:32:17 AM 42.9203 -73.9144 332° Northwest 238 274 10,700 2,545 Climbing Boston Center
Sat 06:33:29 AM 42.9858 -74.0011 316° Northwest 132 152 12,900 2,864 Climbing Boston Center
Sat 06:34:29 AM 42.9239 -74.1044 231° Southwest 410 472 17,000 3,550 Climbing Boston Center
Sat 06:35:29 AM 42.8264 -74.0736 167° South 411 473 20,000 3,400 Climbing Boston Center
Sat 06:36:29 AM 42.7269 -74.0314 163° South 392 451 23,800 3,600 Climbing Boston Center
Sat 06:37:29 AM 42.6339 -73.9839 159° South 372 428 27,200 2,100 Climbing Boston Center
Sat 06:38:29 AM 42.5303 -73.9389 162° South 358 412 28,000 400 Climbing Boston Center
Sat 06:39:29 AM 42.4328 -73.8972 162° South 358 412 28,000  Level Boston Center
Sat 06:40:29 AM 42.3375 -73.8556 162° South 363 418 28,000  Level Boston Center
Sat 06:41:29 AM 42.2336 -73.8114 163° South 369 425 28,000  Level Boston Center
Sat 06:42:29 AM 42.1300 -73.7642 161° South 381 438 28,000  Level Boston Center
Sat 06:43:29 AM 42.0197 -73.7592 178° South 386 444 28,000  Level Boston Center
Sat 06:44:29 AM 41.9111 -73.7653 182° South 386 444 28,000  Level Boston Center
Sat 06:46:29 AM 41.6919 -73.7742 182° South 391 450 28,000  Level New York Center
Sat 06:47:30 AM 41.5814 -73.7775 181° South 397 457 28,000  Level New York Center
Sat 06:48:31 AM 41.4708 -73.7892 185° South 402 463 28,000  Level New York Center
Sat 06:49:29 AM 41.3708 -73.8703 211° Southwest 402 463 28,000  Level New York Center
Sat 06:50:30 AM 41.2747 -73.9569 214° Southwest 402 463 28,000  Level New York Center
Sat 06:51:29 AM 41.1786 -74.0461 215° Southwest 415 478 28,000  Level New York Center
Sat 06:52:30 AM 41.0825 -74.1350 215° Southwest 433 498 28,000  Level New York Center
Sat 06:53:30 AM 40.9778 -74.2231 212° Southwest 441 507 28,000  Level New York Center
Sat 06:54:31 AM 40.8792 -74.3197 217° Southwest 441 507 28,000  Level New York Center
Sat 06:55:29 AM 40.7847 -74.4133 217° Southwest 441 507 28,000  Level New York Center
Sat 06:56:31 AM 40.7058 -74.5350 229° Southwest 436 502 28,000  Level New York Center
Sat 06:57:29 AM 40.6269 -74.6567 230° Southwest 441 507 28,000  Level New York Center
Sat 06:58:29 AM 40.5456 -74.7775 228° Southwest 446 513 28,000  Level New York Center
Sat 06:59:30 AM 40.4622 -74.9008 228° Southwest 446 513 28,000 -465 Level New York Center
Sat 07:00:38 AM 40.4178 -75.0400 247° West 431 496 27,000 -1,513 Descending New York Center
Sat 07:01:29 AM 40.3833 -75.1822 252° West 425 489 25,000 -2,357 Descending New York Center
Sat 07:02:30 AM 40.3067 -75.2808 224° Southwest 413 475 22,600 -2,400 Descending New York Center
Sat 07:03:29 AM 40.2175 -75.3728 218° Southwest 418 481 20,200 -2,300 Descending New York Center
Sat 07:04:30 AM 40.1156 -75.4747 217° Southwest 423 487 18,000 -1,091 Descending New York Center
Sat 07:05:30 AM 40.0425 -75.5836 229° Southwest 404 465 18,000 -149 Level New York Center
Sat 07:06:31 AM 39.9758 -75.6847 229° Southwest 389 448 17,700 -595 Descending New York Center
Sat 07:07:31 AM 39.9069 -75.7828 228° Southwest 381 438 16,800 -893 Descending New York Center
Sat 07:08:32 AM 39.8444 -75.8783 230° Southwest 368 423 15,900 -1,309 Descending New York Center
Sat 07:11:11 AM 39.6833 -76.1333 231° Southwest 351 404 12,000 -1,288 Descending Potomac TRACON
Sat 07:12:11 AM 39.6333 -76.2167 232° Southwest 300 345 11,200 -1,200 Descending Potomac TRACON
Sat 07:13:11 AM 39.5833 -76.3000 232° Southwest 298 343 9,600 -1,579 Descending Potomac TRACON
Sat 07:14:05 AM 39.5167 -76.3667 218° Southwest 310 357 8,200 -1,400 Descending Potomac TRACON
Sat 07:15:11 AM 39.4333 -76.4167 205° Southwest 304 350 6,800 -1,238 Descending Potomac TRACON
Sat 07:16:11 AM 39.3500 -76.4167 180° South 303 349 5,600 -1,200 Descending Potomac TRACON
Sat 07:17:11 AM 39.2667 -76.4333 189° South 282 325 4,400 -842 Descending Potomac TRACON
Sat 07:18:05 AM 39.2000 -76.4500 191° South 290 334 4,000 -632 Descending Potomac TRACON
Sat 07:19:05 AM 39.1167 -76.4833 197° South 289 333 3,200 -950 Descending Potomac TRACON
Sat 07:20:05 AM 39.0667 -76.5500 226° Southwest 251 289 2,100 -600 Descending Potomac TRACON
Sat 07:21:05 AM 39.0833 -76.5833 303° West 150 173 2,000 -263 Descending Potomac TRACON
Sat 07:21:59 AM 39.1000 -76.6000 322° Northwest 100 115 1,600 -385 Descending Potomac TRACON
Sat 07:22:54 AM 39.1167 -76.6167 322° Northwest 117 135 1,300 -522 Descending Potomac TRACON
Sat 07:23:54 AM 39.1500 -76.6500 322° Northwest 122 140 600 -700 Descending Potomac TRACON

Login

Don't have an account? Register now (free) for customized features, flight alerts, and more!